createdAt,value
2023-05-13T00:01:26.178Z,14.64
2023-05-13T00:03:53.093Z,14.60
2023-05-13T00:06:19.906Z,14.59
2023-05-13T00:08:46.764Z,14.52
2023-05-13T00:11:13.551Z,14.47
2023-05-13T00:13:40.279Z,14.49
2023-05-13T00:16:07.012Z,14.50
2023-05-13T00:18:33.961Z,14.49
2023-05-13T00:21:00.730Z,14.51
2023-05-13T00:23:27.466Z,14.53
2023-05-13T00:25:54.225Z,14.50
2023-05-13T00:28:21.231Z,14.52
2023-05-13T00:30:49.338Z,14.50
2023-05-13T00:33:16.627Z,14.50
2023-05-13T00:35:43.649Z,14.52
2023-05-13T00:38:10.384Z,14.51
2023-05-13T00:40:39.612Z,14.42
2023-05-13T00:43:06.812Z,14.30
2023-05-13T00:45:33.639Z,14.26
2023-05-13T00:48:00.814Z,14.25
2023-05-13T00:50:27.741Z,14.21
2023-05-13T00:52:57.320Z,14.28
2023-05-13T00:55:24.173Z,14.33
2023-05-13T00:57:50.878Z,14.31
2023-05-13T01:00:18.244Z,14.37
2023-05-13T01:03:19.245Z,14.41
2023-05-13T01:06:03.619Z,14.26
2023-05-13T01:08:41.145Z,14.27
2023-05-13T01:11:13.550Z,14.25
2023-05-13T01:13:43.512Z,14.15
2023-05-13T01:16:20.695Z,14.12
2023-05-13T01:18:56.857Z,14.21
2023-05-13T01:21:27.900Z,14.25
2023-05-13T01:23:56.098Z,14.33
2023-05-13T01:26:24.333Z,14.37
2023-05-13T01:28:51.558Z,14.41
2023-05-13T01:31:19.577Z,14.39
2023-05-13T01:33:47.499Z,14.42
2023-05-13T01:36:15.434Z,14.43
2023-05-13T01:38:44.298Z,14.41
2023-05-13T01:41:11.184Z,14.31
2023-05-13T01:43:38.794Z,14.26
2023-05-13T01:46:12.417Z,14.25
2023-05-13T01:48:39.293Z,14.11
2023-05-13T01:51:10.666Z,14.11
2023-05-13T01:53:37.384Z,14.01
2023-05-13T01:56:04.371Z,13.87
2023-05-13T01:58:31.562Z,13.84
2023-05-13T02:00:58.355Z,13.90
2023-05-13T02:03:25.191Z,13.99
2023-05-13T02:05:52.526Z,14.02
2023-05-13T02:08:19.337Z,14.12
2023-05-13T02:10:55.004Z,14.14
2023-05-13T02:13:21.840Z,14.18
2023-05-13T02:15:48.621Z,14.20
2023-05-13T02:18:15.596Z,14.12
2023-05-13T02:20:42.397Z,14.09
2023-05-13T02:23:09.353Z,14.05
2023-05-13T02:25:36.247Z,14.08
2023-05-13T02:28:03.085Z,14.14
2023-05-13T02:30:29.921Z,14.13
2023-05-13T02:32:58.042Z,14.15
2023-05-13T02:35:26.122Z,14.17
2023-05-13T02:37:52.978Z,14.17
2023-05-13T02:40:19.901Z,14.21
2023-05-13T02:42:47.314Z,14.18
2023-05-13T02:45:17.203Z,14.18
2023-05-13T02:47:49.372Z,14.14
2023-05-13T02:50:17.102Z,14.17
2023-05-13T02:52:44.754Z,14.16
2023-05-13T02:55:11.722Z,14.15
2023-05-13T02:57:38.761Z,14.17
2023-05-13T03:00:06.600Z,14.21
2023-05-13T03:02:35.044Z,14.18
2023-05-13T03:05:01.897Z,14.13
2023-05-13T03:07:28.598Z,14.04
2023-05-13T03:09:55.865Z,13.94
2023-05-13T03:12:22.999Z,13.93
2023-05-13T03:14:49.809Z,13.98
2023-05-13T03:17:16.588Z,14.00
2023-05-13T03:19:43.506Z,13.97
2023-05-13T03:22:10.430Z,13.72
2023-05-13T03:24:37.162Z,13.61
2023-05-13T03:27:04.120Z,13.63
2023-05-13T03:29:32.424Z,13.77
2023-05-13T03:31:59.256Z,13.80
2023-05-13T03:34:26.314Z,13.83
2023-05-13T03:36:53.313Z,13.65
2023-05-13T03:39:20.223Z,13.71
2023-05-13T03:41:46.982Z,13.80
2023-05-13T03:44:13.919Z,13.82
2023-05-13T03:46:40.865Z,13.79
2023-05-13T03:49:07.796Z,13.77
2023-05-13T03:51:34.602Z,13.79
2023-05-13T03:54:02.396Z,13.79
2023-05-13T03:56:29.325Z,13.84
2023-05-13T03:58:56.230Z,13.82
2023-05-13T04:01:24.085Z,13.85
2023-05-13T04:03:50.940Z,13.87
2023-05-13T04:06:17.672Z,13.91
2023-05-13T04:08:47.098Z,13.83
2023-05-13T04:11:15.905Z,13.81
2023-05-13T04:13:44.419Z,13.78
2023-05-13T04:16:11.194Z,13.68
2023-05-13T04:18:37.953Z,13.64
2023-05-13T04:21:09.002Z,13.61
2023-05-13T04:23:36.099Z,13.65
2023-05-13T04:26:02.785Z,13.71
2023-05-13T04:28:29.867Z,13.77
2023-05-13T04:30:57.415Z,13.83
2023-05-13T04:33:24.455Z,13.83
2023-05-13T04:35:51.229Z,13.87
2023-05-13T04:38:18.032Z,13.94
2023-05-13T04:40:45.624Z,13.96
2023-05-13T04:43:15.669Z,13.97
2023-05-13T04:45:49.132Z,13.97
2023-05-13T04:48:16.512Z,13.97
2023-05-13T04:50:47.101Z,13.96
2023-05-13T04:53:15.695Z,13.98
2023-05-13T04:55:42.458Z,13.99
2023-05-13T04:58:09.329Z,14.01
2023-05-13T05:00:36.598Z,13.98
2023-05-13T05:03:03.421Z,13.98
2023-05-13T05:05:30.304Z,13.97
2023-05-13T05:07:57.213Z,13.97
2023-05-13T05:10:23.968Z,13.99
2023-05-13T05:12:54.624Z,13.97
2023-05-13T05:15:22.029Z,13.96
2023-05-13T05:17:52.633Z,14.01
2023-05-13T05:20:19.884Z,14.05
2023-05-13T05:22:50.270Z,14.12
2023-05-13T05:25:18.693Z,14.15
2023-05-13T05:27:45.378Z,14.14
2023-05-13T05:30:12.905Z,14.12
2023-05-13T05:32:40.464Z,14.13
2023-05-13T05:35:08.823Z,14.15
2023-05-13T05:37:36.639Z,14.20
2023-05-13T05:40:04.397Z,14.25
2023-05-13T05:42:33.156Z,14.29
2023-05-13T05:44:59.904Z,14.32
2023-05-13T05:47:26.693Z,14.32
2023-05-13T05:49:53.532Z,14.34
2023-05-13T05:52:20.526Z,14.37
2023-05-13T05:54:48.078Z,14.40
2023-05-13T05:57:14.801Z,14.39
2023-05-13T05:59:41.573Z,14.40
2023-05-13T06:02:08.486Z,14.45
2023-05-13T06:04:35.931Z,14.45
2023-05-13T06:07:02.796Z,14.46
2023-05-13T06:09:29.825Z,14.50
2023-05-13T06:11:56.547Z,14.49
2023-05-13T06:14:23.657Z,14.52
2023-05-13T06:16:50.410Z,14.49
2023-05-13T06:19:17.798Z,14.52
2023-05-13T06:21:45.212Z,14.57
2023-05-13T06:24:12.029Z,14.57
2023-05-13T06:26:40.426Z,14.62
2023-05-13T06:29:07.228Z,14.67
2023-05-13T06:31:34.068Z,14.67
2023-05-13T06:34:01.841Z,14.73
2023-05-13T06:36:28.562Z,14.76
2023-05-13T06:38:55.644Z,14.81
2023-05-13T06:41:24.053Z,14.87
2023-05-13T06:43:53.267Z,14.96
2023-05-13T06:46:21.724Z,14.99
2023-05-13T06:48:52.293Z,15.01
2023-05-13T06:51:19.425Z,15.04
2023-05-13T06:53:46.407Z,15.05
2023-05-13T06:56:13.399Z,15.08
2023-05-13T06:58:40.143Z,15.12
2023-05-13T07:01:07.018Z,15.13
2023-05-13T07:03:33.858Z,15.13
2023-05-13T07:06:00.846Z,15.10
2023-05-13T07:08:27.642Z,15.16
2023-05-13T07:10:54.495Z,15.16
2023-05-13T07:13:22.542Z,15.20
2023-05-13T07:15:49.435Z,15.29
2023-05-13T07:18:16.413Z,15.31
2023-05-13T07:20:43.295Z,15.45
2023-05-13T07:23:10.123Z,15.63
2023-05-13T07:25:39.773Z,15.58
2023-05-13T07:28:06.498Z,15.59
2023-05-13T07:30:33.377Z,15.54
2023-05-13T07:33:00.235Z,15.57
2023-05-13T07:35:27.086Z,15.60
2023-05-13T07:37:54.034Z,15.66
2023-05-13T07:40:21.323Z,15.69
2023-05-13T07:42:48.243Z,15.74
2023-05-13T07:45:15.053Z,15.77
2023-05-13T07:47:43.719Z,15.87
2023-05-13T07:50:11.746Z,16.01
2023-05-13T07:52:38.799Z,16.02
2023-05-13T07:55:06.161Z,16.02
2023-05-13T07:57:32.927Z,16.09
2023-05-13T07:59:59.763Z,16.20
2023-05-13T08:02:27.261Z,16.25
2023-05-13T08:04:54.574Z,16.30
2023-05-13T08:07:21.535Z,16.53
2023-05-13T08:09:48.274Z,16.57
2023-05-13T08:12:15.053Z,16.60
2023-05-13T08:14:41.961Z,16.70
2023-05-13T08:17:08.948Z,16.85
2023-05-13T08:19:36.428Z,16.89
2023-05-13T08:22:03.312Z,16.87
2023-05-13T08:24:30.187Z,16.94
2023-05-13T08:26:56.947Z,16.90
2023-05-13T08:29:23.722Z,16.91
2023-05-13T08:31:50.861Z,16.96
2023-05-13T08:34:17.784Z,16.97
2023-05-13T08:36:44.522Z,17.04
2023-05-13T08:39:11.359Z,17.11
2023-05-13T08:41:39.839Z,17.26
2023-05-13T08:44:09.342Z,17.27
2023-05-13T08:46:38.193Z,17.28
2023-05-13T08:49:05.496Z,17.31
2023-05-13T08:51:32.288Z,17.33
2023-05-13T08:54:00.144Z,17.33
2023-05-13T08:56:29.196Z,17.38
2023-05-13T08:58:56.441Z,17.49
2023-05-13T09:01:29.272Z,17.54
2023-05-13T09:04:04.531Z,17.50
2023-05-13T09:06:31.316Z,17.61
2023-05-13T09:09:03.005Z,17.77
2023-05-13T09:11:29.818Z,17.79
2023-05-13T09:14:02.126Z,17.87
2023-05-13T09:16:29.499Z,17.95
2023-05-13T09:19:00.553Z,18.05
2023-05-13T09:21:29.295Z,18.01
2023-05-13T09:24:03.523Z,18.12
2023-05-13T09:26:30.736Z,18.23
2023-05-13T09:29:18.961Z,18.30
2023-05-13T09:31:48.844Z,18.24
2023-05-13T09:34:26.228Z,18.26
2023-05-13T09:37:18.048Z,18.27
2023-05-13T09:39:44.808Z,18.21
2023-05-13T09:42:16.813Z,18.14
2023-05-13T09:44:45.735Z,17.98
2023-05-13T09:47:16.895Z,18.04
2023-05-13T09:49:45.315Z,18.07
2023-05-13T09:52:16.774Z,18.16
2023-05-13T09:54:44.601Z,18.19
2023-05-13T09:57:13.372Z,18.26
2023-05-13T09:59:40.299Z,18.21
2023-05-13T10:02:08.809Z,18.15
2023-05-13T10:04:35.600Z,18.07
2023-05-13T10:07:05.913Z,18.01
2023-05-13T10:09:36.809Z,18.05
2023-05-13T10:12:07.235Z,18.17
2023-05-13T10:14:36.959Z,18.23
2023-05-13T10:17:05.418Z,18.02
2023-05-13T10:19:33.033Z,17.92
2023-05-13T10:22:00.490Z,17.86
2023-05-13T10:24:29.076Z,17.83
2023-05-13T10:26:57.051Z,17.91
2023-05-13T10:29:25.630Z,17.98
2023-05-13T10:31:53.277Z,18.04
2023-05-13T10:34:21.583Z,17.98
2023-05-13T10:36:55.086Z,18.03
2023-05-13T10:39:40.290Z,18.09
2023-05-13T10:42:22.075Z,18.08
2023-05-13T10:44:54.469Z,18.15
2023-05-13T10:47:21.376Z,18.10
2023-05-13T10:49:52.988Z,18.04
2023-05-13T10:52:19.994Z,18.08
2023-05-13T10:55:01.450Z,18.24
2023-05-13T10:58:04.590Z,18.25
2023-05-13T11:00:31.903Z,18.36
2023-05-13T11:03:29.557Z,18.24
2023-05-13T11:06:13.958Z,18.06
2023-05-13T11:09:55.430Z,18.08
2023-05-13T11:12:22.305Z,18.09
2023-05-13T11:14:49.032Z,18.14
2023-05-13T11:17:20.873Z,18.22
2023-05-13T11:19:50.606Z,18.22
2023-05-13T11:22:24.223Z,18.15
2023-05-13T11:25:09.388Z,18.03
2023-05-13T11:27:41.127Z,17.97
2023-05-13T11:30:28.525Z,18.04
2023-05-13T11:32:57.329Z,18.09
2023-05-13T11:35:33.413Z,18.02
2023-05-13T11:38:02.368Z,17.99
2023-05-13T11:40:31.916Z,18.04
2023-05-13T11:42:59.435Z,17.80
2023-05-13T11:45:27.766Z,17.89
2023-05-13T11:47:55.071Z,17.76
2023-05-13T11:50:24.120Z,17.71
2023-05-13T11:52:59.295Z,17.63
2023-05-13T11:55:27.170Z,17.46
2023-05-13T11:57:54.411Z,17.35
2023-05-13T12:00:34.725Z,17.22
2023-05-13T12:03:11.694Z,17.13
2023-05-13T12:05:39.171Z,17.15
2023-05-13T12:08:09.979Z,17.12
2023-05-13T12:10:43.738Z,16.98
2023-05-13T12:13:11.057Z,16.98
2023-05-13T12:15:38.209Z,16.98
2023-05-13T12:18:05.586Z,16.97
2023-05-13T12:20:33.598Z,16.98
2023-05-13T12:23:01.636Z,17.01
2023-05-13T12:25:40.390Z,17.07
2023-05-13T12:28:21.642Z,17.10
2023-05-13T12:31:07.856Z,17.25
2023-05-13T12:33:43.144Z,17.34
2023-05-13T12:36:24.337Z,17.42
2023-05-13T12:38:59.829Z,17.44
2023-05-13T12:41:30.132Z,17.43
2023-05-13T12:44:02.104Z,17.49
2023-05-13T12:46:29.853Z,17.61
2023-05-13T12:49:01.783Z,17.70
2023-05-13T12:51:33.867Z,17.74
2023-05-13T12:54:00.965Z,17.92
2023-05-13T12:56:28.281Z,18.05
2023-05-13T12:58:55.457Z,18.08
2023-05-13T13:01:22.576Z,18.08
2023-05-13T13:03:52.414Z,18.10
2023-05-13T13:06:19.166Z,18.16
2023-05-13T13:08:46.056Z,18.19
2023-05-13T13:11:18.700Z,18.21
2023-05-13T13:13:47.068Z,18.10
2023-05-13T15:28:18.468Z,14.71
2023-05-13T15:31:36.437Z,14.71
2023-05-13T15:34:03.366Z,14.79
2023-05-13T15:36:30.100Z,14.86
2023-05-13T15:38:56.859Z,14.97
2023-05-13T15:41:23.620Z,15.05
2023-05-13T15:43:50.390Z,15.15
2023-05-13T15:46:17.338Z,15.20
2023-05-13T15:48:44.170Z,15.24
2023-05-13T15:51:11.081Z,15.32
2023-05-13T15:53:37.851Z,15.33
2023-05-13T15:56:04.836Z,15.36
2023-05-13T15:58:31.946Z,15.37
2023-05-13T16:00:58.822Z,15.26
2023-05-13T16:03:25.821Z,15.22
2023-05-13T16:05:53.065Z,15.15
2023-05-13T16:08:20.074Z,15.09
2023-05-13T16:10:46.929Z,15.00
2023-05-13T16:13:16.380Z,14.96
2023-05-13T16:15:43.250Z,15.00
2023-05-13T16:18:10.320Z,14.98
2023-05-13T16:20:37.288Z,15.04
2023-05-13T16:23:04.616Z,15.04
2023-05-13T16:25:32.291Z,14.97
2023-05-13T16:27:59.283Z,14.95
2023-05-13T16:30:26.158Z,14.93
2023-05-13T16:32:54.675Z,14.95
2023-05-13T16:35:22.694Z,15.01
2023-05-13T16:37:50.703Z,15.08
2023-05-13T16:40:17.588Z,15.03
2023-05-13T16:42:46.546Z,14.97
2023-05-13T16:45:13.753Z,14.92
2023-05-13T16:47:41.297Z,14.90
2023-05-13T16:50:09.939Z,14.98
2023-05-13T16:52:37.096Z,15.06
2023-05-13T16:55:04.072Z,15.05
2023-05-13T16:57:30.937Z,15.06
2023-05-13T16:59:57.710Z,15.13
2023-05-13T17:02:26.658Z,15.10
2023-05-13T17:04:55.039Z,15.04
2023-05-13T17:07:22.737Z,15.07
2023-05-13T17:09:49.849Z,15.09
2023-05-13T17:12:17.519Z,15.11
2023-05-13T17:14:44.743Z,15.14
2023-05-13T17:17:12.987Z,15.17
2023-05-13T17:19:39.939Z,15.15
2023-05-13T17:22:07.534Z,15.18
2023-05-13T17:24:34.690Z,15.19
2023-05-13T17:27:01.879Z,15.22
2023-05-13T17:29:28.961Z,15.21
2023-05-13T17:31:56.083Z,15.19
2023-05-13T17:34:23.477Z,15.20
2023-05-13T17:36:50.678Z,15.06
2023-05-13T17:39:18.148Z,15.02
2023-05-13T17:41:48.337Z,15.00
2023-05-13T17:44:15.525Z,15.00
2023-05-13T17:46:42.510Z,15.03
2023-05-13T17:49:09.527Z,15.00
2023-05-13T17:51:39.674Z,15.04
2023-05-13T17:54:07.460Z,15.08
2023-05-13T17:56:34.328Z,15.12
2023-05-13T17:59:01.267Z,15.13
2023-05-13T18:01:28.037Z,15.14
2023-05-13T18:03:55.645Z,15.09
2023-05-13T18:06:22.501Z,15.09
2023-05-13T18:08:49.532Z,14.80
2023-05-13T18:11:16.559Z,14.56
2023-05-13T18:13:43.360Z,14.52
2023-05-13T18:16:12.259Z,14.48
2023-05-13T18:18:39.328Z,14.51
2023-05-13T18:21:06.217Z,14.59
2023-05-13T18:23:33.038Z,14.60
2023-05-13T18:26:00.185Z,14.55
2023-05-13T18:28:27.181Z,14.55
2023-05-13T18:30:54.080Z,14.59
2023-05-13T18:33:21.813Z,14.64
2023-05-13T18:35:49.100Z,14.70
2023-05-13T18:38:15.928Z,14.71
2023-05-13T18:40:42.665Z,14.71
2023-05-13T18:43:09.641Z,14.73
2023-05-13T18:45:36.845Z,14.74
2023-05-13T18:48:04.475Z,14.74
2023-05-13T18:50:31.449Z,14.74
2023-05-13T18:52:59.006Z,14.74
2023-05-13T18:55:25.951Z,14.72
2023-05-13T18:57:52.695Z,14.73
2023-05-13T19:00:19.918Z,14.71
2023-05-13T19:02:47.053Z,14.68
2023-05-13T19:05:14.111Z,14.67
2023-05-13T19:07:41.236Z,14.54
2023-05-13T19:10:09.311Z,14.52
2023-05-13T19:12:36.273Z,14.48
2023-05-13T19:15:03.358Z,14.47
2023-05-13T19:17:31.120Z,14.52
2023-05-13T19:20:00.531Z,14.56
2023-05-13T19:22:28.359Z,14.58
2023-05-13T19:24:55.207Z,14.59
2023-05-13T19:27:22.231Z,14.55
2023-05-13T19:29:53.704Z,14.56
2023-05-13T19:32:26.680Z,14.52
2023-05-13T19:34:54.096Z,14.57
2023-05-13T19:37:40.277Z,14.60
2023-05-13T19:40:08.526Z,14.62
2023-05-13T19:42:35.722Z,14.60
2023-05-13T19:45:14.374Z,14.62
2023-05-13T19:47:56.311Z,14.46
2023-05-13T19:50:24.920Z,14.34
2023-05-13T19:52:55.338Z,14.17
2023-05-13T19:55:23.567Z,14.17
2023-05-13T19:57:51.260Z,14.11
2023-05-13T20:00:32.655Z,14.08
2023-05-13T20:03:01.093Z,14.03
2023-05-13T20:05:29.427Z,14.07
2023-05-13T20:08:00.153Z,14.05
2023-05-13T20:10:28.843Z,14.07
2023-05-13T20:12:56.522Z,14.10
2023-05-13T20:15:23.569Z,14.13
2023-05-13T20:17:58.994Z,14.16
2023-05-13T20:20:29.117Z,14.15
2023-05-13T20:22:59.858Z,14.16
2023-05-13T20:25:27.036Z,14.22
2023-05-13T20:27:58.361Z,14.15
2023-05-13T20:30:29.242Z,14.21
2023-05-13T20:32:56.180Z,14.13
2023-05-13T20:35:28.950Z,14.09
2023-05-13T20:37:57.381Z,14.15
2023-05-13T20:40:26.248Z,14.29
2023-05-13T20:42:53.312Z,14.39
2023-05-13T20:45:23.389Z,14.37
2023-05-13T20:47:50.257Z,14.35
2023-05-13T20:50:17.125Z,14.37
2023-05-13T20:52:44.157Z,14.38
2023-05-13T20:55:12.326Z,14.39
2023-05-13T20:57:39.205Z,14.37
2023-05-13T21:00:07.415Z,14.38
2023-05-13T21:02:34.267Z,14.35
2023-05-13T21:05:01.071Z,14.28
2023-05-13T21:07:27.995Z,14.00
2023-05-13T21:09:55.168Z,14.08
2023-05-13T21:12:23.376Z,14.03
2023-05-13T21:14:50.182Z,14.05
2023-05-13T21:17:23.103Z,13.99
2023-05-13T21:19:51.000Z,14.05
2023-05-13T21:22:18.061Z,14.08
2023-05-13T21:24:46.195Z,13.93
2023-05-13T21:27:16.190Z,13.95
2023-05-13T21:29:45.426Z,13.97
2023-05-13T21:32:12.303Z,13.92
2023-05-13T21:34:39.236Z,13.94
2023-05-13T21:37:08.968Z,13.90
2023-05-13T21:39:36.880Z,13.85
2023-05-13T21:42:07.251Z,13.72
2023-05-13T21:44:34.330Z,13.81
2023-05-13T21:47:01.159Z,13.76
2023-05-13T21:49:28.068Z,13.76
2023-05-13T21:51:54.866Z,13.64
2023-05-13T21:54:22.819Z,13.68
2023-05-13T21:56:49.868Z,13.61
2023-05-13T21:59:16.696Z,13.69
2023-05-13T22:01:43.579Z,13.76
2023-05-13T22:04:10.507Z,13.87
2023-05-13T22:06:37.240Z,13.86
2023-05-13T22:09:04.556Z,13.96
2023-05-13T22:11:31.867Z,13.91
2023-05-13T22:13:59.267Z,13.91
2023-05-13T22:16:32.068Z,13.82
2023-05-13T22:19:04.712Z,13.85
2023-05-13T22:21:34.288Z,13.84
2023-05-13T22:24:00.987Z,13.88
2023-05-13T22:26:27.866Z,13.87
2023-05-13T22:28:54.581Z,13.88
2023-05-13T22:31:21.531Z,13.89
2023-05-13T22:33:48.265Z,13.87
2023-05-13T22:36:15.102Z,13.81
2023-05-13T22:38:44.295Z,13.72
2023-05-13T22:41:12.361Z,13.78
2023-05-13T22:43:43.649Z,13.68
2023-05-13T22:46:10.520Z,13.60
2023-05-13T22:48:37.355Z,13.67
2023-05-13T22:51:04.295Z,13.71
2023-05-13T22:53:31.055Z,13.77
2023-05-13T22:55:58.044Z,13.73
2023-05-13T22:58:26.710Z,13.76
2023-05-13T23:00:53.463Z,13.77
2023-05-13T23:03:20.199Z,13.71
2023-05-13T23:05:47.168Z,13.58
2023-05-13T23:08:13.876Z,13.52
2023-05-13T23:10:40.627Z,13.57
2023-05-13T23:13:07.642Z,13.66
2023-05-13T23:15:36.987Z,13.53
2023-05-13T23:18:03.838Z,13.37
2023-05-13T23:20:31.096Z,13.46
2023-05-13T23:22:58.350Z,13.53
2023-05-13T23:25:25.069Z,13.58
2023-05-13T23:27:51.848Z,13.36
2023-05-13T23:30:18.601Z,13.21
2023-05-13T23:32:46.237Z,13.21
2023-05-13T23:35:13.102Z,13.28
2023-05-13T23:37:40.040Z,13.35
2023-05-13T23:40:07.392Z,13.44
2023-05-13T23:42:34.116Z,13.47
2023-05-13T23:45:00.801Z,13.53
2023-05-13T23:47:27.905Z,13.53
2023-05-13T23:49:54.809Z,13.61
2023-05-13T23:52:21.547Z,13.58
2023-05-13T23:54:48.227Z,13.61
2023-05-13T23:57:15.071Z,13.64
2023-05-13T23:59:42.073Z,13.67
